Negaunee, MI (49866)

6:32 PM EST on February 06, 2016 (GMT -0500)
Negaunee, Michigan | | Change Station
CLOSE
Current Station
Personal Weather Station
Location: Negaunee, MI
Elevation: 1305 ft
Nearby Weather Stations

Elev 1305 ft 46.50 °N, 87.61 °W | Updated 10 minutes ago

Overcast
Overcast
27.7 °F
Feels Like 23 °F
N
4.2
Wind Variable Wind from SSW

Today
High -- | Low -- °F
--% Chance of Precip.
Yesterday
High -- | Low -- °F
Precip. -- in
Pressure 29.95 in
Visibility 10.0 miles
Clouds Mostly Cloudy 7000 ft
Overcast 11000 ft
Windchill 23 °F
Dew Point 19 °F
Humidity 69%
Rainfall 0.00 in
Snow Depth Not available.
8:08 AM 6:01 PM
Waning Crescent, 4% visible
METAR KSAW 062245Z 20009KT 10SM BKN070 OVC110 M02/M07 A2995
Pressure 29.95 in
Visibility 10.0 miles
Clouds Mostly Cloudy 7000 ft
Overcast 11000 ft
Windchill 23 °F
Dew Point 19 °F
Humidity 69%
Rainfall 0.00 in
Snow Depth Not available.
8:08 AM 6:01 PM
Waning Crescent, 4% visible
METAR KSAW 062245Z 20009KT 10SM BKN070 OVC110 M02/M07 A2995

10-Day Weather Forecast

Almanac

Astronomy

Feb. 06, 2016 Rise Set
Actual Time
Civil Twilight
Nautical Twilight
Astronomical Twilight
Moon
Length of Visible Light
Length of Day
Tomorrow will be .
, % of the Moon is Illuminated

Today's Extremes

State Highs State Lows

Community

WunderPhotos

Upload Photos

1,891,098 photos uploaded!

WunderBlog® & News

Nearby

Air Quality

  Air Quality AQ Index Pollutant
Not available.

Snow Depth

Station Depth Elevation

Earthquake Activity

City Distance Mag. Time & Date
Minimum magnitude displayed is 2.5.

Coastal Water Temperatures

Place Temperature

Stations

Nearby Weather Stations

Station Location Temp. Windchill Dew Point Humidity Wind Precip. Elev Updated Type
                   

Watches & Warnings

There are currently no watches in effect.